createdAt,value
2023-04-29T00:01:28.569Z,20.00
2023-04-29T00:03:57.426Z,17.70
2023-04-29T00:06:26.161Z,23.70
2023-04-29T00:08:54.838Z,19.50
2023-04-29T00:11:23.200Z,17.70
2023-04-29T00:13:51.681Z,24.50
2023-04-29T00:16:20.882Z,18.40
2023-04-29T00:18:49.479Z,21.30
2023-04-29T00:21:17.997Z,19.70
2023-04-29T00:23:46.536Z,20.30
2023-04-29T00:26:15.404Z,20.20
2023-04-29T00:28:44.721Z,18.60
2023-04-29T00:31:13.974Z,18.60
2023-04-29T00:33:43.004Z,17.90
2023-04-29T00:36:11.857Z,17.10
2023-04-29T00:38:40.676Z,21.00
2023-04-29T00:41:09.673Z,19.00
2023-04-29T00:43:38.049Z,16.80
2023-04-29T00:46:06.969Z,14.20
2023-04-29T00:48:35.530Z,17.60
2023-04-29T00:51:06.760Z,21.80
2023-04-29T00:53:35.938Z,21.90
2023-04-29T00:56:05.063Z,19.00
2023-04-29T00:58:35.528Z,16.00
2023-04-29T01:01:04.721Z,19.90
2023-04-29T01:03:34.206Z,22.60
2023-04-29T01:06:30.877Z,15.50
2023-04-29T01:09:23.024Z,22.00
2023-04-29T01:12:29.271Z,22.70
2023-04-29T01:15:44.930Z,17.90
2023-04-29T01:18:26.230Z,20.10
2023-04-29T01:20:57.256Z,17.40
2023-04-29T01:23:27.768Z,19.60
2023-04-29T01:25:58.208Z,19.60
2023-04-29T01:28:55.060Z,18.10
2023-04-29T01:31:37.026Z,19.80
2023-04-29T01:34:14.853Z,19.60
2023-04-29T01:37:15.269Z,17.60
2023-04-29T01:40:09.902Z,21.10
2023-04-29T01:42:56.173Z,23.10
2023-04-29T01:45:27.611Z,16.60
2023-04-29T01:47:59.151Z,20.40
2023-04-29T01:50:28.376Z,17.60
2023-04-29T01:53:01.601Z,21.50
2023-04-29T01:55:30.764Z,21.00
2023-04-29T01:58:19.628Z,17.20
2023-04-29T02:01:27.244Z,18.40
2023-04-29T02:03:56.074Z,17.90
2023-04-29T02:06:24.895Z,20.70
2023-04-29T02:08:57.374Z,24.70
2023-04-29T02:11:26.015Z,23.60
2023-04-29T02:13:57.095Z,21.70
2023-04-29T02:16:25.749Z,18.10
2023-04-29T02:19:00.011Z,23.50
2023-04-29T02:21:28.682Z,24.40
2023-04-29T02:23:57.265Z,17.80
2023-04-29T02:26:26.585Z,22.80
2023-04-29T02:28:57.817Z,21.80
2023-04-29T02:31:26.608Z,18.60
2023-04-29T02:33:56.012Z,22.50
2023-04-29T02:36:25.305Z,22.80
2023-04-29T02:38:57.134Z,17.70
2023-04-29T02:41:26.098Z,21.20
2023-04-29T02:43:55.687Z,18.80
2023-04-29T02:46:24.420Z,18.20
2023-04-29T02:48:53.595Z,24.80
2023-04-29T02:51:22.544Z,23.20
2023-04-29T02:53:51.326Z,17.90
2023-04-29T02:56:20.429Z,22.80
2023-04-29T02:58:49.466Z,20.90
2023-04-29T03:01:18.014Z,19.70
2023-04-29T03:03:47.036Z,19.90
2023-04-29T03:06:16.198Z,20.80
2023-04-29T03:08:44.889Z,21.40
2023-04-29T03:11:13.572Z,20.90
2023-04-29T03:13:42.145Z,21.90
2023-04-29T03:16:11.192Z,20.80
2023-04-29T03:18:41.163Z,19.00
2023-04-29T03:21:10.153Z,24.80
2023-04-29T03:23:40.305Z,19.10
2023-04-29T03:26:09.897Z,19.60
2023-04-29T03:28:39.190Z,23.30
2023-04-29T03:31:08.127Z,21.60
2023-04-29T03:33:36.895Z,27.20
2023-04-29T03:36:06.363Z,21.70
2023-04-29T03:38:49.611Z,25.40
2023-04-29T03:41:18.783Z,20.70
2023-04-29T03:43:47.259Z,20.30
2023-04-29T03:46:15.973Z,20.80
2023-04-29T03:48:44.600Z,24.10
2023-04-29T03:51:13.832Z,23.60
2023-04-29T03:53:43.120Z,20.60
2023-04-29T03:59:51.265Z,22.20
2023-04-29T04:02:20.340Z,21.50
2023-04-29T04:04:49.359Z,19.50
2023-04-29T04:07:18.644Z,23.80
2023-04-29T04:10:06.686Z,27.40
2023-04-29T04:12:35.277Z,24.20
2023-04-29T04:15:04.603Z,21.20
2023-04-29T04:17:33.057Z,22.60
2023-04-29T04:20:01.638Z,27.40
2023-04-29T04:22:30.346Z,22.70
2023-04-29T04:25:12.351Z,25.70
2023-04-29T04:27:41.513Z,20.70
2023-04-29T04:30:13.372Z,25.40
2023-04-29T04:32:41.906Z,22.80
2023-04-29T04:35:10.761Z,20.60
2023-04-29T04:37:39.738Z,24.00
2023-04-29T04:40:09.595Z,28.00
2023-04-29T04:42:42.680Z,24.00
2023-04-29T04:45:15.012Z,23.50
2023-04-29T04:47:49.660Z,26.00
2023-04-29T04:50:29.558Z,21.50
2023-04-29T04:52:58.695Z,21.90
2023-04-29T04:55:47.375Z,28.10
2023-04-29T04:58:16.373Z,24.80
2023-04-29T05:00:46.219Z,24.10
2023-04-29T05:03:15.525Z,25.90
2023-04-29T05:05:44.859Z,19.70
2023-04-29T05:08:13.743Z,26.60
2023-04-29T05:10:45.435Z,25.80
2023-04-29T05:13:14.088Z,19.80
2023-04-29T05:15:43.204Z,24.00
2023-04-29T05:18:12.481Z,23.00
2023-04-29T05:20:42.289Z,17.30
2023-04-29T05:23:11.413Z,20.10
2023-04-29T05:25:41.502Z,17.90
2023-04-29T05:28:11.621Z,18.50
2023-04-29T05:30:44.059Z,18.70
2023-04-29T05:33:13.295Z,17.20
2023-04-29T05:35:42.298Z,17.70
2023-04-29T05:38:11.216Z,16.80
2023-04-29T05:40:50.414Z,25.00
2023-04-29T05:43:39.279Z,19.00
2023-04-29T05:46:08.913Z,22.40
2023-04-29T05:48:37.804Z,21.00
2023-04-29T05:51:06.557Z,21.70
2023-04-29T05:53:36.381Z,19.60
2023-04-29T05:56:05.220Z,32.00
2023-04-29T05:58:33.946Z,19.80
2023-04-29T06:01:03.407Z,22.10
2023-04-29T06:03:32.738Z,21.00
2023-04-29T06:06:41.598Z,22.60
2023-04-29T06:09:19.801Z,22.10
2023-04-29T06:11:58.987Z,20.40
2023-04-29T06:14:28.217Z,21.60
2023-04-29T06:16:57.650Z,20.40
2023-04-29T06:19:28.070Z,18.60
2023-04-29T06:21:59.336Z,19.20
2023-04-29T06:24:28.114Z,18.80
2023-04-29T06:26:58.921Z,22.90
2023-04-29T06:29:28.523Z,20.70
2023-04-29T06:31:57.370Z,23.40
2023-04-29T06:34:26.719Z,17.20
2023-04-29T06:37:22.435Z,18.60
2023-04-29T06:40:11.908Z,20.40
2023-04-29T06:43:04.768Z,22.60
2023-04-29T06:45:57.713Z,35.40
2023-04-29T06:48:38.800Z,17.70
2023-04-29T06:51:07.998Z,22.10
2023-04-29T06:53:38.514Z,19.40
2023-04-29T06:56:08.175Z,17.70
2023-04-29T06:58:36.808Z,14.00
2023-04-29T07:01:07.180Z,16.10
2023-04-29T07:03:35.932Z,17.30
2023-04-29T07:06:06.308Z,20.40
2023-04-29T07:08:35.756Z,15.80
2023-04-29T07:11:04.755Z,17.30
2023-04-29T07:13:33.676Z,19.40
2023-04-29T07:16:02.334Z,14.90
2023-04-29T07:18:32.312Z,22.00
2023-04-29T07:21:02.302Z,19.60
2023-04-29T07:23:31.460Z,10.10
2023-04-29T07:26:00.032Z,16.50
2023-04-29T07:28:29.152Z,10.60
2023-04-29T07:30:58.086Z,11.20
2023-04-29T07:33:29.562Z,7.50
2023-04-29T07:35:58.800Z,9.10
2023-04-29T07:38:28.268Z,11.30
2023-04-29T07:40:57.265Z,8.70
2023-04-29T07:43:25.752Z,6.80
2023-04-29T07:45:54.364Z,9.30
2023-04-29T07:48:23.336Z,8.00
2023-04-29T07:50:52.720Z,8.40
2023-04-29T07:53:22.050Z,9.00
2023-04-29T07:55:52.768Z,9.10
2023-04-29T07:58:24.039Z,9.60
2023-04-29T08:00:52.943Z,8.50
2023-04-29T08:03:23.316Z,8.90
2023-04-29T08:05:53.865Z,6.90
2023-04-29T08:08:24.121Z,7.30
2023-04-29T08:10:53.574Z,5.30
2023-04-29T08:13:22.172Z,7.80
2023-04-29T08:15:51.074Z,6.50
2023-04-29T08:18:20.052Z,7.60
2023-04-29T08:20:49.973Z,6.50
2023-04-29T08:23:18.398Z,7.00
2023-04-29T08:25:47.576Z,9.20
2023-04-29T08:28:15.871Z,11.10
2023-04-29T08:30:44.498Z,4.20
2023-04-29T08:33:13.386Z,3.80
2023-04-29T08:35:42.556Z,5.20
2023-04-29T08:38:12.337Z,6.70
2023-04-29T08:40:47.319Z,3.80
2023-04-29T08:43:18.505Z,3.50
2023-04-29T08:45:49.724Z,7.30
2023-04-29T08:48:18.874Z,3.00
2023-04-29T08:50:47.310Z,5.70
2023-04-29T08:53:16.083Z,7.80
2023-04-29T08:55:46.184Z,4.60
2023-04-29T08:58:16.621Z,7.10
2023-04-29T09:00:46.572Z,6.00
2023-04-29T09:03:22.178Z,7.40
2023-04-29T09:05:56.423Z,6.20
2023-04-29T09:08:25.598Z,5.60
2023-04-29T09:10:54.717Z,8.10
2023-04-29T09:13:33.229Z,8.40
2023-04-29T09:16:01.803Z,5.10
2023-04-29T09:18:44.802Z,6.60
2023-04-29T09:21:28.053Z,4.60
2023-04-29T09:23:58.914Z,5.80
2023-04-29T09:26:28.601Z,3.80
2023-04-29T09:29:08.278Z,4.10
2023-04-29T09:31:42.598Z,4.10
2023-04-29T09:34:12.695Z,6.90
2023-04-29T09:36:48.023Z,4.60
2023-04-29T09:39:22.540Z,5.20
2023-04-29T09:41:53.939Z,5.50
2023-04-29T09:44:28.782Z,4.70
2023-04-29T09:47:03.522Z,3.00
2023-04-29T09:49:32.947Z,5.40
2023-04-29T09:52:07.020Z,6.30
2023-04-29T09:54:36.980Z,6.00
2023-04-29T09:57:07.492Z,7.70
2023-04-29T09:59:39.181Z,4.60
2023-04-29T10:02:15.904Z,5.40
2023-04-29T10:04:54.266Z,3.50
2023-04-29T10:07:23.657Z,4.40
2023-04-29T10:09:53.601Z,4.70
2023-04-29T10:12:23.204Z,4.60
2023-04-29T10:15:36.869Z,4.30
2023-04-29T10:18:26.880Z,4.20
2023-04-29T10:20:58.599Z,8.00
2023-04-29T10:23:27.581Z,6.70
2023-04-29T10:26:00.214Z,5.80
2023-04-29T10:28:32.695Z,7.30
2023-04-29T10:31:08.100Z,7.50
2023-04-29T10:33:40.881Z,5.80
2023-04-29T10:36:10.895Z,4.80
2023-04-29T10:38:53.052Z,8.70
2023-04-29T10:41:28.916Z,7.40
2023-04-29T10:43:59.845Z,8.10
2023-04-29T10:46:29.185Z,10.10
2023-04-29T10:49:01.844Z,4.80
2023-04-29T10:51:32.135Z,7.10
2023-04-29T10:54:07.590Z,6.00
2023-04-29T10:56:51.033Z,6.50
2023-04-29T10:59:44.165Z,6.80
2023-04-29T11:02:12.753Z,13.30
2023-04-29T11:05:12.901Z,7.70
2023-04-29T11:07:42.074Z,7.70
2023-04-29T11:10:10.755Z,11.10
2023-04-29T11:12:39.063Z,7.90
2023-04-29T11:15:11.317Z,6.00
2023-04-29T11:17:41.762Z,5.40
2023-04-29T11:20:14.345Z,8.00
2023-04-29T11:22:52.696Z,14.20
2023-04-29T11:25:21.000Z,5.00
2023-04-29T11:27:51.691Z,4.70
2023-04-29T11:30:20.272Z,4.40
2023-04-29T11:32:51.315Z,4.80
2023-04-29T11:35:20.564Z,5.70
2023-04-29T11:37:49.261Z,7.00
2023-04-29T11:40:17.956Z,6.30
2023-04-29T11:42:50.339Z,5.00
2023-04-29T11:45:19.428Z,5.30
2023-04-29T11:47:49.138Z,12.90
2023-04-29T11:50:20.133Z,5.60
2023-04-29T11:52:50.059Z,9.30
2023-04-29T11:55:19.876Z,7.10
2023-04-29T11:57:51.370Z,6.90
2023-04-29T12:00:20.422Z,5.20
2023-04-29T12:02:49.354Z,3.30
2023-04-29T12:05:19.826Z,5.60
2023-04-29T12:07:51.327Z,3.00
2023-04-29T12:10:21.533Z,5.00
2023-04-29T12:12:50.449Z,6.40
2023-04-29T12:15:19.332Z,8.10
2023-04-29T12:17:48.932Z,5.80
2023-04-29T12:20:17.493Z,4.60
2023-04-29T12:22:48.217Z,4.60
2023-04-29T12:25:18.440Z,4.00
2023-04-29T12:27:54.702Z,5.30
2023-04-29T12:30:23.805Z,6.70
2023-04-29T12:32:53.611Z,6.40
2023-04-29T12:35:23.563Z,5.20
2023-04-29T12:37:52.326Z,7.00
2023-04-29T12:40:21.466Z,4.20
2023-04-29T12:42:50.031Z,6.60
2023-04-29T12:45:33.066Z,4.70
2023-04-29T12:48:07.218Z,7.60
2023-04-29T12:50:39.359Z,5.30
2023-04-29T12:53:09.006Z,6.20
2023-04-29T12:55:38.765Z,5.90
2023-04-29T12:58:09.661Z,4.40
2023-04-29T13:00:38.595Z,3.30
2023-04-29T13:03:07.595Z,4.20
2023-04-29T13:05:36.450Z,4.30
2023-04-29T13:08:08.780Z,6.40
2023-04-29T13:10:37.477Z,4.70
2023-04-29T13:13:06.822Z,4.50
2023-04-29T13:15:36.863Z,5.20
2023-04-29T13:18:07.719Z,6.40
2023-04-29T13:20:41.349Z,4.50
2023-04-29T13:23:12.648Z,7.20
2023-04-29T13:25:41.587Z,11.10
2023-04-29T13:28:10.168Z,6.40
2023-04-29T13:30:39.151Z,8.10
2023-04-29T13:33:11.818Z,2.90
2023-04-29T13:35:42.037Z,5.90
2023-04-29T13:38:11.568Z,6.20
2023-04-29T13:40:45.921Z,4.60
2023-04-29T13:46:07.255Z,5.60
2023-04-29T13:54:41.419Z,8.10
2023-04-29T13:59:39.374Z,4.40
2023-04-29T14:02:23.241Z,3.70
2023-04-29T14:08:20.174Z,6.40
2023-04-29T14:10:49.016Z,5.80
2023-04-29T14:13:18.887Z,5.00
2023-04-29T14:15:48.401Z,6.10
2023-04-29T14:18:17.159Z,8.00
2023-04-29T14:20:45.982Z,6.20
2023-04-29T14:23:14.843Z,8.20
2023-04-29T14:25:43.736Z,8.00
2023-04-29T14:28:13.139Z,8.50
2023-04-29T14:30:46.195Z,10.20
2023-04-29T14:33:15.833Z,7.30
2023-04-29T14:35:44.518Z,6.10
2023-04-29T14:38:13.307Z,6.30
2023-04-29T14:40:43.200Z,5.10
2023-04-29T14:43:12.028Z,5.70
2023-04-29T14:45:42.011Z,6.20
2023-04-29T14:48:11.195Z,7.10
2023-04-29T14:50:39.894Z,8.40
2023-04-29T14:53:09.086Z,7.90
2023-04-29T14:55:38.611Z,5.80
2023-04-29T14:58:11.086Z,5.50
2023-04-29T15:00:39.856Z,5.20
2023-04-29T15:03:10.789Z,5.90
2023-04-29T15:05:46.506Z,3.80
2023-04-29T15:08:16.070Z,7.50
2023-04-29T15:10:48.073Z,5.80
2023-04-29T15:13:16.806Z,6.20
2023-04-29T15:15:45.697Z,4.90
2023-04-29T15:18:16.370Z,5.80
2023-04-29T15:20:45.114Z,8.80
2023-04-29T15:23:14.242Z,5.40
2023-04-29T15:25:43.006Z,5.80
2023-04-29T15:28:11.308Z,7.90
2023-04-29T15:30:39.865Z,6.90
2023-04-29T15:33:08.598Z,4.80
2023-04-29T15:35:37.467Z,6.00
2023-04-29T15:38:07.360Z,5.20
2023-04-29T15:40:36.087Z,5.40
2023-04-29T15:43:04.525Z,4.30
2023-04-29T15:45:33.644Z,7.60
2023-04-29T15:48:02.605Z,5.50
2023-04-29T15:50:31.323Z,4.80
2023-04-29T15:53:00.837Z,7.00
2023-04-29T15:55:29.378Z,5.90
2023-04-29T15:57:58.169Z,5.60
2023-04-29T16:00:26.955Z,5.50
2023-04-29T16:02:55.770Z,4.90
2023-04-29T16:05:24.554Z,11.90
2023-04-29T16:07:53.127Z,5.70
2023-04-29T16:10:21.941Z,4.50
2023-04-29T16:12:50.695Z,6.10
2023-04-29T16:15:19.892Z,7.20
2023-04-29T16:21:19.115Z,4.90
2023-04-29T16:23:48.327Z,5.20
2023-04-29T16:26:17.506Z,7.60
2023-04-29T16:28:45.818Z,7.60
2023-04-29T16:31:14.414Z,9.20
2023-04-29T16:33:43.272Z,9.30
2023-04-29T16:36:12.053Z,11.70
2023-04-29T16:38:41.345Z,7.10
2023-04-29T16:41:09.756Z,7.60
2023-04-29T16:43:38.519Z,16.00
2023-04-29T16:46:07.324Z,9.30
2023-04-29T16:48:36.308Z,8.40
2023-04-29T16:51:04.991Z,9.30
2023-04-29T16:53:33.499Z,10.20
2023-04-29T16:56:02.048Z,10.70
2023-04-29T16:58:30.554Z,8.30
2023-04-29T17:00:59.354Z,7.60
2023-04-29T17:03:28.165Z,9.30
2023-04-29T17:05:56.943Z,16.40
2023-04-29T17:08:25.296Z,8.50
2023-04-29T17:10:54.367Z,12.10
2023-04-29T17:13:23.115Z,7.80
2023-04-29T17:15:52.168Z,7.20
2023-04-29T17:18:21.147Z,7.20
2023-04-29T17:20:50.954Z,8.40
2023-04-29T17:23:20.465Z,13.20
2023-04-29T17:25:50.061Z,10.00
2023-04-29T17:28:19.932Z,9.50
2023-04-29T17:30:49.899Z,14.50
2023-04-29T17:33:18.589Z,21.10
2023-04-29T17:35:47.376Z,18.20
2023-04-29T17:38:16.191Z,13.90
2023-04-29T17:40:44.842Z,12.90
2023-04-29T17:43:13.560Z,22.40
2023-04-29T17:45:42.030Z,26.80
2023-04-29T17:48:11.160Z,17.40
2023-04-29T17:50:39.702Z,18.10
2023-04-29T17:53:08.397Z,16.80
2023-04-29T17:55:41.104Z,14.80
2023-04-29T17:58:09.695Z,12.00
2023-04-29T18:00:39.081Z,15.40
2023-04-29T18:03:08.721Z,16.80
2023-04-29T18:05:37.740Z,20.30
2023-04-29T18:08:06.357Z,18.30
2023-04-29T18:10:35.016Z,9.90
2023-04-29T18:13:03.824Z,15.90
2023-04-29T18:15:32.663Z,20.40
2023-04-29T18:18:01.507Z,27.40
2023-04-29T18:20:30.159Z,24.60
2023-04-29T18:22:58.776Z,29.10
2023-04-29T18:25:27.257Z,33.20
2023-04-29T18:28:07.765Z,29.90
2023-04-29T18:30:48.463Z,35.60
2023-04-29T18:33:17.465Z,34.70
2023-04-29T18:35:46.457Z,34.30
2023-04-29T18:38:17.657Z,31.90
2023-04-29T18:40:46.580Z,37.00
2023-04-29T18:43:18.337Z,32.70
2023-04-29T18:45:47.157Z,35.50
2023-04-29T18:48:16.429Z,36.20
2023-04-29T18:50:45.225Z,27.60
2023-04-29T18:53:14.353Z,20.70
2023-04-29T18:55:42.891Z,23.40
2023-04-29T18:58:11.807Z,32.50
2023-04-29T19:00:41.092Z,28.90
2023-04-29T19:03:09.985Z,25.70
2023-04-29T19:05:39.167Z,20.90
2023-04-29T19:08:07.647Z,24.60
2023-04-29T19:10:36.393Z,32.80
2023-04-29T19:13:05.304Z,29.30
2023-04-29T19:15:34.069Z,30.10
2023-04-29T19:18:02.742Z,39.30
2023-04-29T19:20:32.059Z,33.00
2023-04-29T19:23:00.698Z,35.90
2023-04-29T19:25:29.205Z,40.60
2023-04-29T19:27:57.780Z,36.40
2023-04-29T19:30:27.073Z,40.60
2023-04-29T19:32:55.578Z,39.60
2023-04-29T19:35:24.944Z,29.80
2023-04-29T19:37:54.969Z,39.20
2023-04-29T19:40:24.220Z,23.50
2023-04-29T19:42:53.361Z,21.80
2023-04-29T19:45:22.142Z,24.40
2023-04-29T19:47:50.845Z,17.60
2023-04-29T19:50:19.510Z,16.40
2023-04-29T19:52:48.498Z,18.00
2023-04-29T19:55:16.988Z,24.80
2023-04-29T19:57:45.875Z,15.80
2023-04-29T20:00:14.985Z,21.10
2023-04-29T20:02:44.756Z,31.80
2023-04-29T20:05:14.000Z,24.50
2023-04-29T20:07:42.866Z,26.30
2023-04-29T20:10:12.200Z,30.50
2023-04-29T20:12:40.754Z,25.70
2023-04-29T20:15:10.358Z,34.40
2023-04-29T20:17:39.538Z,26.10
2023-04-29T20:20:09.322Z,28.20
2023-04-29T20:22:39.281Z,31.80
2023-04-29T20:25:24.889Z,30.50
2023-04-29T20:27:59.919Z,32.30
2023-04-29T20:30:28.737Z,28.00
2023-04-29T20:32:57.471Z,33.70
2023-04-29T20:35:27.259Z,31.90
2023-04-29T20:37:55.978Z,25.30
2023-04-29T20:40:25.075Z,26.60
2023-04-29T20:42:53.579Z,23.00
2023-04-29T20:45:23.647Z,28.90
2023-04-29T20:48:08.491Z,27.70
2023-04-29T20:53:19.637Z,28.90
2023-04-29T20:55:55.695Z,27.30
2023-04-29T20:58:33.122Z,31.60
2023-04-29T21:01:03.685Z,31.90
2023-04-29T21:03:32.208Z,33.90
2023-04-29T21:06:00.920Z,38.30
2023-04-29T21:08:29.768Z,36.40
2023-04-29T21:10:58.459Z,36.60
2023-04-29T21:13:27.055Z,41.80
2023-04-29T21:15:55.781Z,37.90
2023-04-29T21:18:25.041Z,36.60
2023-04-29T21:20:53.708Z,46.00
2023-04-29T21:23:23.355Z,40.20
2023-04-29T21:25:52.652Z,44.40
2023-04-29T21:28:21.743Z,35.30
2023-04-29T21:30:51.453Z,36.60
2023-04-29T21:33:20.960Z,34.10
2023-04-29T21:35:51.845Z,32.50
2023-04-29T21:38:20.965Z,43.20
2023-04-29T21:40:51.408Z,33.90
2023-04-29T21:43:20.305Z,35.00
2023-04-29T21:45:50.817Z,33.10
2023-04-29T21:48:23.502Z,27.70
2023-04-29T21:50:52.373Z,34.40
2023-04-29T21:53:23.218Z,34.00
2023-04-29T21:55:51.703Z,26.60
2023-04-29T21:58:21.403Z,27.60
2023-04-29T22:01:03.580Z,28.90
2023-04-29T22:03:32.724Z,34.70
2023-04-29T22:06:02.074Z,27.00
2023-04-29T22:08:31.105Z,33.20
2023-04-29T22:10:59.977Z,31.30
2023-04-29T22:13:28.647Z,27.30
2023-04-29T22:15:58.495Z,26.50
2023-04-29T22:18:27.081Z,24.80
2023-04-29T22:20:55.775Z,26.60
2023-04-29T22:23:24.122Z,28.00
2023-04-29T22:25:52.827Z,23.70
2023-04-29T22:28:21.625Z,26.20
2023-04-29T22:30:49.978Z,30.90
2023-04-29T22:33:18.816Z,33.30
2023-04-29T22:35:47.368Z,28.10
2023-04-29T22:38:16.144Z,35.50
2023-04-29T22:40:53.934Z,30.10
2023-04-29T22:43:22.827Z,34.40
2023-04-29T22:45:55.407Z,32.00
2023-04-29T22:48:27.328Z,31.40
2023-04-29T22:50:59.595Z,39.70
2023-04-29T22:53:28.084Z,35.10
2023-04-29T22:55:58.907Z,38.40
2023-04-29T22:58:27.534Z,40.90
2023-04-29T23:00:58.144Z,48.30
2023-04-29T23:03:27.772Z,38.10
2023-04-29T23:06:00.241Z,32.90
2023-04-29T23:08:28.964Z,36.70
2023-04-29T23:10:57.526Z,34.60
2023-04-29T23:13:26.150Z,27.00
2023-04-29T23:15:59.792Z,34.90
2023-04-29T23:18:28.289Z,25.40
2023-04-29T23:20:57.488Z,26.90
2023-04-29T23:23:25.860Z,29.40
2023-04-29T23:25:54.245Z,24.10
2023-04-29T23:28:22.727Z,30.10
2023-04-29T23:30:51.458Z,25.10
2023-04-29T23:33:20.301Z,22.40
2023-04-29T23:35:50.749Z,22.10
2023-04-29T23:38:20.008Z,19.60
2023-04-29T23:40:48.540Z,22.90
2023-04-29T23:43:17.096Z,22.70
2023-04-29T23:45:46.388Z,24.00
2023-04-29T23:48:16.299Z,21.40
2023-04-29T23:50:44.787Z,22.10
2023-04-29T23:53:13.374Z,24.10
2023-04-29T23:55:42.066Z,25.50
2023-04-29T23:58:10.793Z,23.00
